Time;durP1;ratioP1;P1;durP2;ratioP2;P2;SDS_P1;SDS_P2;PMS_P1;PMS_P2;Temp;Humidity;BMP_temperature;BMP_pressure;BME280_temperature;BME280_humidity;BME280_pressure;Samples;Min_cycle;Max_cycle;Signal;HPM_P1;HPM_P2
2024/01/05 00:00:22;;;;;;;3.6;1.9;;;;;;;6.1;54.38184;94384.27;;;;
2024/01/05 00:01:23;;;;;;;3.6;1.9;;;;;;;6.1;54.38184;94384.27;;;;
2024/01/05 00:02:23;;;;;;;3.6;1.9;;;;;;;6.1;54.38184;94384.27;;;;
2024/01/05 00:03:24;;;;;;;3.6;1.9;;;;;;;6.1;54.38184;94384.27;;;;
2024/01/05 00:04:24;;;;;;;3.6;1.9;;;;;;;6.1;54.38184;94384.27;;;;
2024/01/05 00:05:24;;;;;;;3.6;1.9;;;;;;;6.1;54.38184;94384.27;;;;
2024/01/05 00:06:25;;;;;;;3.6;1.9;;;;;;;6.1;54.38184;94384.27;;;;
2024/01/05 00:07:25;;;;;;;3.6;1.9;;;;;;;6.1;54.38184;94384.27;;;;
2024/01/05 00:08:26;;;;;;;3.6;1.9;;;;;;;6.1;54.38184;94384.27;;;;
2024/01/05 00:09:26;;;;;;;3.6;1.9;;;;;;;6.1;54.38184;94384.27;;;;
2024/01/05 00:10:26;;;;;;;3.35;1.75;;;;;;;6.16;54.3584;94364.58;;;;
2024/01/05 00:11:27;;;;;;;3.35;1.75;;;;;;;6.16;54.3584;94364.58;;;;
2024/01/05 00:12:27;;;;;;;3.35;1.75;;;;;;;6.16;54.3584;94364.58;;;;
2024/01/05 00:13:28;;;;;;;3.35;1.75;;;;;;;6.16;54.3584;94364.58;;;;
2024/01/05 00:14:28;;;;;;;3.35;1.75;;;;;;;6.16;54.3584;94364.58;;;;
2024/01/05 00:15:29;;;;;;;3.35;1.75;;;;;;;6.16;54.3584;94364.58;;;;
2024/01/05 00:16:29;;;;;;;3.35;1.75;;;;;;;6.16;54.3584;94364.58;;;;
2024/01/05 00:17:30;;;;;;;3.35;1.75;;;;;;;6.16;54.3584;94364.58;;;;
2024/01/05 00:18:30;;;;;;;3.35;1.75;;;;;;;6.16;54.3584;94364.58;;;;
2024/01/05 00:19:31;;;;;;;3.35;1.75;;;;;;;6.16;54.3584;94364.58;;;;
2024/01/05 00:20:31;;;;;;;3.35;1.75;;;;;;;6.16;54.3584;94364.58;;;;
2024/01/05 00:21:32;;;;;;;4;1.8;;;;;;;6.21;54.5459;94350.83;;;;
2024/01/05 00:22:32;;;;;;;4;1.8;;;;;;;6.21;54.5459;94350.83;;;;
2024/01/05 00:23:33;;;;;;;4;1.8;;;;;;;6.21;54.5459;94350.83;;;;
2024/01/05 00:24:33;;;;;;;4;1.8;;;;;;;6.21;54.5459;94350.83;;;;
2024/01/05 00:25:35;;;;;;;4;1.8;;;;;;;6.21;54.5459;94350.83;;;;
2024/01/05 00:26:36;;;;;;;4;1.8;;;;;;;6.21;54.5459;94350.83;;;;
2024/01/05 00:27:40;;;;;;;4;1.8;;;;;;;6.21;54.5459;94350.83;;;;
2024/01/05 00:28:40;;;;;;;4;1.8;;;;;;;6.21;54.5459;94350.83;;;;
2024/01/05 00:29:41;;;;;;;4;1.8;;;;;;;6.21;54.5459;94350.83;;;;
2024/01/05 00:30:42;;;;;;;4;1.8;;;;;;;6.21;54.5459;94350.83;;;;
2024/01/05 00:31:42;;;;;;;3;1.7;;;;;;;6.34;54.5625;94347.65;;;;
2024/01/05 00:32:43;;;;;;;3;1.7;;;;;;;6.34;54.5625;94347.65;;;;
2024/01/05 00:33:44;;;;;;;3;1.7;;;;;;;6.34;54.5625;94347.65;;;;
2024/01/05 00:34:45;;;;;;;3;1.7;;;;;;;6.34;54.5625;94347.65;;;;
2024/01/05 00:35:45;;;;;;;3;1.7;;;;;;;6.34;54.5625;94347.65;;;;
2024/01/05 00:36:45;;;;;;;3;1.7;;;;;;;6.34;54.5625;94347.65;;;;
2024/01/05 00:37:46;;;;;;;3;1.7;;;;;;;6.34;54.5625;94347.65;;;;
2024/01/05 00:38:47;;;;;;;3;1.7;;;;;;;6.34;54.5625;94347.65;;;;
2024/01/05 00:39:48;;;;;;;3;1.7;;;;;;;6.34;54.5625;94347.65;;;;
2024/01/05 00:40:48;;;;;;;3;1.7;;;;;;;6.34;54.5625;94347.65;;;;
2024/01/05 00:41:49;;;;;;;3;1.7;;;;;;;6.34;54.5625;94347.65;;;;
2024/01/05 00:42:49;;;;;;;4.25;1.7;;;;;;;6.41;54.74414;94341.47;;;;
2024/01/05 00:43:50;;;;;;;4.25;1.7;;;;;;;6.41;54.74414;94341.47;;;;
2024/01/05 00:44:50;;;;;;;4.25;1.7;;;;;;;6.41;54.74414;94341.47;;;;
2024/01/05 00:45:51;;;;;;;4.25;1.7;;;;;;;6.41;54.74414;94341.47;;;;
2024/01/05 00:46:51;;;;;;;4.25;1.7;;;;;;;6.41;54.74414;94341.47;;;;
2024/01/05 00:47:52;;;;;;;4.25;1.7;;;;;;;6.41;54.74414;94341.47;;;;
2024/01/05 00:48:53;;;;;;;4.25;1.7;;;;;;;6.41;54.74414;94341.47;;;;
2024/01/05 00:49:54;;;;;;;4.25;1.7;;;;;;;6.41;54.74414;94341.47;;;;
2024/01/05 00:50:54;;;;;;;4.25;1.7;;;;;;;6.41;54.74414;94341.47;;;;
2024/01/05 00:51:54;;;;;;;4.25;1.7;;;;;;;6.41;54.74414;94341.47;;;;
2024/01/05 00:52:55;;;;;;;4.25;1.7;;;;;;;6.41;54.74414;94341.47;;;;
2024/01/05 00:53:55;;;;;;;4.049999;1.85;;;;;;;6.45;54.71484;94325.7;;;;
2024/01/05 00:54:56;;;;;;;4.049999;1.85;;;;;;;6.45;54.71484;94325.7;;;;
2024/01/05 00:55:56;;;;;;;4.049999;1.85;;;;;;;6.45;54.71484;94325.7;;;;
2024/01/05 00:56:57;;;;;;;4.049999;1.85;;;;;;;6.45;54.71484;94325.7;;;;
2024/01/05 00:57:57;;;;;;;4.049999;1.85;;;;;;;6.45;54.71484;94325.7;;;;
2024/01/05 00:58:58;;;;;;;4.049999;1.85;;;;;;;6.45;54.71484;94325.7;;;;
2024/01/05 00:59:58;;;;;;;4.049999;1.85;;;;;;;6.45;54.71484;94325.7;;;;
2024/01/05 01:00:59;;;;;;;4.049999;1.85;;;;;;;6.45;54.71484;94325.7;;;;
2024/01/05 01:01:59;;;;;;;4.049999;1.85;;;;;;;6.45;54.71484;94325.7;;;;
2024/01/05 01:03:00;;;;;;;4.049999;1.85;;;;;;;6.45;54.71484;94325.7;;;;
2024/01/05 01:04:00;;;;;;;3;1.6;;;;;;;6.14;55.24512;94308.87;;;;
2024/01/05 01:05:00;;;;;;;3;1.6;;;;;;;6.14;55.24512;94308.87;;;;
2024/01/05 01:06:01;;;;;;;3;1.6;;;;;;;6.14;55.24512;94308.87;;;;
2024/01/05 01:07:02;;;;;;;3;1.6;;;;;;;6.14;55.24512;94308.87;;;;
2024/01/05 01:08:02;;;;;;;3;1.6;;;;;;;6.14;55.24512;94308.87;;;;
2024/01/05 01:09:03;;;;;;;3;1.6;;;;;;;6.14;55.24512;94308.87;;;;
2024/01/05 01:10:04;;;;;;;3;1.6;;;;;;;6.14;55.24512;94308.87;;;;
2024/01/05 01:11:05;;;;;;;3;1.6;;;;;;;6.14;55.24512;94308.87;;;;
2024/01/05 01:12:12;;;;;;;3;1.6;;;;;;;6.14;55.24512;94308.87;;;;
2024/01/05 01:13:13;;;;;;;3;1.6;;;;;;;6.14;55.24512;94308.87;;;;
2024/01/05 01:14:13;;;;;;;3;1.6;;;;;;;6.14;55.24512;94308.87;;;;
2024/01/05 01:15:14;;;;;;;2.3;1.75;;;;;;;6;55.36621;94299.95;;;;
2024/01/05 01:16:14;;;;;;;2.3;1.75;;;;;;;6;55.36621;94299.95;;;;
2024/01/05 01:17:15;;;;;;;2.3;1.75;;;;;;;6;55.36621;94299.95;;;;
2024/01/05 01:18:15;;;;;;;2.3;1.75;;;;;;;6;55.36621;94299.95;;;;
2024/01/05 01:19:16;;;;;;;2.3;1.75;;;;;;;6;55.36621;94299.95;;;;
2024/01/05 01:20:17;;;;;;;2.3;1.75;;;;;;;6;55.36621;94299.95;;;;
2024/01/05 01:21:17;;;;;;;2.3;1.75;;;;;;;6;55.36621;94299.95;;;;
2024/01/05 01:22:18;;;;;;;2.3;1.75;;;;;;;6;55.36621;94299.95;;;;
2024/01/05 01:23:18;;;;;;;2.3;1.75;;;;;;;6;55.36621;94299.95;;;;
2024/01/05 01:24:19;;;;;;;2.3;1.75;;;;;;;6;55.36621;94299.95;;;;
2024/01/05 01:25:19;;;;;;;2.3;1.75;;;;;;;6;55.36621;94299.95;;;;
2024/01/05 01:26:19;;;;;;;3.45;1.8;;;;;;;5.74;55.4082;94302.14;;;;
2024/01/05 01:27:20;;;;;;;3.45;1.8;;;;;;;5.74;55.4082;94302.14;;;;
2024/01/05 01:28:20;;;;;;;3.45;1.8;;;;;;;5.74;55.4082;94302.14;;;;
2024/01/05 01:29:21;;;;;;;3.45;1.8;;;;;;;5.74;55.4082;94302.14;;;;
2024/01/05 01:30:21;;;;;;;3.45;1.8;;;;;;;5.74;55.4082;94302.14;;;;
2024/01/05 01:31:22;;;;;;;3.45;1.8;;;;;;;5.74;55.4082;94302.14;;;;
2024/01/05 01:32:22;;;;;;;3.45;1.8;;;;;;;5.74;55.4082;94302.14;;;;
2024/01/05 01:33:23;;;;;;;3.45;1.8;;;;;;;5.74;55.4082;94302.14;;;;
2024/01/05 01:34:23;;;;;;;3.45;1.8;;;;;;;5.74;55.4082;94302.14;;;;
2024/01/05 01:35:24;;;;;;;3.45;1.8;;;;;;;5.74;55.4082;94302.14;;;;
2024/01/05 01:36:25;;;;;;;2.75;1.7;;;;;;;5.5;55.62207;94286.28;;;;
2024/01/05 01:37:26;;;;;;;2.75;1.7;;;;;;;5.5;55.62207;94286.28;;;;
2024/01/05 01:38:26;;;;;;;2.75;1.7;;;;;;;5.5;55.62207;94286.28;;;;
2024/01/05 01:39:26;;;;;;;2.75;1.7;;;;;;;5.5;55.62207;94286.28;;;;
2024/01/05 01:40:27;;;;;;;2.75;1.7;;;;;;;5.5;55.62207;94286.28;;;;
2024/01/05 01:41:27;;;;;;;2.75;1.7;;;;;;;5.5;55.62207;94286.28;;;;
2024/01/05 01:42:28;;;;;;;2.75;1.7;;;;;;;5.5;55.62207;94286.28;;;;
2024/01/05 01:43:28;;;;;;;2.75;1.7;;;;;;;5.5;55.62207;94286.28;;;;
2024/01/05 01:44:29;;;;;;;2.75;1.7;;;;;;;5.5;55.62207;94286.28;;;;
2024/01/05 01:45:29;;;;;;;2.75;1.7;;;;;;;5.5;55.62207;94286.28;;;;
2024/01/05 01:46:31;;;;;;;2.75;1.7;;;;;;;5.5;55.62207;94286.28;;;;
2024/01/05 01:47:32;;;;;;;2.05;1.45;;;;;;;5.35;55.60352;94262.93;;;;
2024/01/05 01:48:33;;;;;;;2.05;1.45;;;;;;;5.35;55.60352;94262.93;;;;
2024/01/05 01:49:33;;;;;;;2.05;1.45;;;;;;;5.35;55.60352;94262.93;;;;
2024/01/05 01:50:34;;;;;;;2.05;1.45;;;;;;;5.35;55.60352;94262.93;;;;
2024/01/05 01:51:35;;;;;;;2.05;1.45;;;;;;;5.35;55.60352;94262.93;;;;
2024/01/05 01:52:36;;;;;;;2.05;1.45;;;;;;;5.35;55.60352;94262.93;;;;
2024/01/05 01:53:38;;;;;;;2.05;1.45;;;;;;;5.35;55.60352;94262.93;;;;
2024/01/05 01:54:38;;;;;;;2.05;1.45;;;;;;;5.35;55.60352;94262.93;;;;
2024/01/05 01:55:39;;;;;;;2.05;1.45;;;;;;;5.35;55.60352;94262.93;;;;
2024/01/05 01:56:40;;;;;;;2.05;1.45;;;;;;;5.35;55.60352;94262.93;;;;
2024/01/05 01:57:42;;;;;;;1.5;1.4;;;;;;;5.29;55.66016;94261.55;;;;
2024/01/05 01:58:43;;;;;;;1.5;1.4;;;;;;;5.29;55.66016;94261.55;;;;
2024/01/05 01:59:44;;;;;;;1.5;1.4;;;;;;;5.29;55.66016;94261.55;;;;
2024/01/05 02:00:45;;;;;;;1.5;1.4;;;;;;;5.29;55.66016;94261.55;;;;
2024/01/05 02:01:46;;;;;;;1.5;1.4;;;;;;;5.29;55.66016;94261.55;;;;
2024/01/05 02:02:47;;;;;;;1.5;1.4;;;;;;;5.29;55.66016;94261.55;;;;
2024/01/05 02:03:47;;;;;;;1.5;1.4;;;;;;;5.29;55.66016;94261.55;;;;
2024/01/05 02:04:48;;;;;;;1.5;1.4;;;;;;;5.29;55.66016;94261.55;;;;
2024/01/05 02:05:50;;;;;;;1.5;1.4;;;;;;;5.29;55.66016;94261.55;;;;
2024/01/05 02:06:51;;;;;;;1.5;1.4;;;;;;;5.29;55.66016;94261.55;;;;
2024/01/05 02:07:52;;;;;;;1.5;1.4;;;;;;;5.29;55.66016;94261.55;;;;
2024/01/05 02:08:52;;;;;;;2.45;1.5;;;;;;;5.32;55.46094;94248.94;;;;
2024/01/05 02:09:53;;;;;;;2.45;1.5;;;;;;;5.32;55.46094;94248.94;;;;
2024/01/05 02:10:54;;;;;;;2.45;1.5;;;;;;;5.32;55.46094;94248.94;;;;
2024/01/05 02:11:54;;;;;;;2.45;1.5;;;;;;;5.32;55.46094;94248.94;;;;
2024/01/05 02:12:56;;;;;;;2.45;1.5;;;;;;;5.32;55.46094;94248.94;;;;
2024/01/05 02:13:57;;;;;;;2.45;1.5;;;;;;;5.32;55.46094;94248.94;;;;
2024/01/05 02:14:58;;;;;;;2.45;1.5;;;;;;;5.32;55.46094;94248.94;;;;
2024/01/05 02:15:58;;;;;;;2.45;1.5;;;;;;;5.32;55.46094;94248.94;;;;
2024/01/05 02:16:59;;;;;;;2.45;1.5;;;;;;;5.32;55.46094;94248.94;;;;
2024/01/05 02:18:00;;;;;;;2.45;1.5;;;;;;;5.32;55.46094;94248.94;;;;
2024/01/05 02:19:08;;;;;;;2.3;1.5;;;;;;;5.37;55.39258;94226.86;;;;
2024/01/05 02:20:09;;;;;;;2.3;1.5;;;;;;;5.37;55.39258;94226.86;;;;
2024/01/05 02:21:10;;;;;;;2.3;1.5;;;;;;;5.37;55.39258;94226.86;;;;
2024/01/05 02:22:13;;;;;;;2.3;1.5;;;;;;;5.37;55.39258;94226.86;;;;
2024/01/05 02:23:14;;;;;;;2.3;1.5;;;;;;;5.37;55.39258;94226.86;;;;
2024/01/05 02:24:23;;;;;;;2.3;1.5;;;;;;;5.37;55.39258;94226.86;;;;
2024/01/05 02:25:23;;;;;;;2.3;1.5;;;;;;;5.37;55.39258;94226.86;;;;
2024/01/05 02:26:24;;;;;;;2.3;1.5;;;;;;;5.37;55.39258;94226.86;;;;
2024/01/05 02:27:24;;;;;;;2.3;1.5;;;;;;;5.37;55.39258;94226.86;;;;
2024/01/05 02:28:25;;;;;;;2.3;1.5;;;;;;;5.37;55.39258;94226.86;;;;
2024/01/05 02:29:26;;;;;;;2.3;1.5;;;;;;;5.37;55.39258;94226.86;;;;
2024/01/05 02:30:27;;;;;;;2.750001;1.5;;;;;;;5.2;55.63672;94206.97;;;;
2024/01/05 02:31:27;;;;;;;2.750001;1.5;;;;;;;5.2;55.63672;94206.97;;;;
2024/01/05 02:32:30;;;;;;;2.750001;1.5;;;;;;;5.2;55.63672;94206.97;;;;
2024/01/05 02:33:30;;;;;;;2.750001;1.5;;;;;;;5.2;55.63672;94206.97;;;;
2024/01/05 02:34:31;;;;;;;2.750001;1.5;;;;;;;5.2;55.63672;94206.97;;;;
2024/01/05 02:35:31;;;;;;;2.750001;1.5;;;;;;;5.2;55.63672;94206.97;;;;
2024/01/05 02:36:32;;;;;;;2.750001;1.5;;;;;;;5.2;55.63672;94206.97;;;;
2024/01/05 02:37:33;;;;;;;2.750001;1.5;;;;;;;5.2;55.63672;94206.97;;;;
2024/01/05 02:38:33;;;;;;;2.750001;1.5;;;;;;;5.2;55.63672;94206.97;;;;
2024/01/05 02:39:33;;;;;;;2.750001;1.5;;;;;;;5.2;55.63672;94206.97;;;;
2024/01/05 02:40:34;;;;;;;2.750001;1.5;;;;;;;5.2;55.63672;94206.97;;;;
2024/01/05 02:41:34;;;;;;;2.750001;1.5;;;;;;;5.2;55.63672;94206.97;;;;
2024/01/05 02:42:35;;;;;;;2.750001;1.5;;;;;;;5.2;55.63672;94206.97;;;;
2024/01/05 02:43:36;;;;;;;2.750001;1.5;;;;;;;5.2;55.63672;94206.97;;;;
2024/01/05 02:44:36;;;;;;;2.750001;1.5;;;;;;;5.2;55.63672;94206.97;;;;
2024/01/05 02:45:36;;;;;;;2.750001;1.5;;;;;;;5.2;55.63672;94206.97;;;;
2024/01/05 02:46:37;;;;;;;2.750001;1.5;;;;;;;5.2;55.63672;94206.97;;;;
2024/01/05 02:47:37;;;;;;;2.750001;1.5;;;;;;;5.2;55.63672;94206.97;;;;
2024/01/05 02:48:38;;;;;;;2.750001;1.5;;;;;;;5.2;55.63672;94206.97;;;;
2024/01/05 02:49:38;;;;;;;2.750001;1.5;;;;;;;5.2;55.63672;94206.97;;;;
2024/01/05 02:50:39;;;;;;;2.750001;1.5;;;;;;;5.2;55.63672;94206.97;;;;
2024/01/05 02:51:39;;;;;;;2.45;1.5;;;;;;;5.06;55.68359;94155.11;;;;
2024/01/05 02:52:40;;;;;;;2.45;1.5;;;;;;;5.06;55.68359;94155.11;;;;
2024/01/05 02:53:40;;;;;;;2.45;1.5;;;;;;;5.06;55.68359;94155.11;;;;
2024/01/05 02:54:44;;;;;;;2.45;1.5;;;;;;;5.06;55.68359;94155.11;;;;
2024/01/05 02:55:44;;;;;;;2.45;1.5;;;;;;;5.06;55.68359;94155.11;;;;
2024/01/05 02:56:45;;;;;;;2.45;1.5;;;;;;;5.06;55.68359;94155.11;;;;
2024/01/05 02:57:45;;;;;;;2.45;1.5;;;;;;;5.06;55.68359;94155.11;;;;
2024/01/05 02:58:46;;;;;;;2.45;1.5;;;;;;;5.06;55.68359;94155.11;;;;
2024/01/05 02:59:47;;;;;;;2.45;1.5;;;;;;;5.06;55.68359;94155.11;;;;
2024/01/05 03:00:47;;;;;;;2.45;1.5;;;;;;;5.06;55.68359;94155.11;;;;
2024/01/05 03:01:47;;;;;;;2.45;1.5;;;;;;;5.06;55.68359;94155.11;;;;
2024/01/05 03:02:48;;;;;;;3.65;1.5;;;;;;;5.09;55.33496;94138.2;;;;
2024/01/05 03:03:49;;;;;;;3.65;1.5;;;;;;;5.09;55.33496;94138.2;;;;
2024/01/05 03:04:51;;;;;;;3.65;1.5;;;;;;;5.09;55.33496;94138.2;;;;
2024/01/05 03:05:52;;;;;;;3.65;1.5;;;;;;;5.09;55.33496;94138.2;;;;
2024/01/05 03:06:52;;;;;;;3.65;1.5;;;;;;;5.09;55.33496;94138.2;;;;
2024/01/05 03:07:53;;;;;;;3.65;1.5;;;;;;;5.09;55.33496;94138.2;;;;
2024/01/05 03:08:53;;;;;;;3.65;1.5;;;;;;;5.09;55.33496;94138.2;;;;
2024/01/05 03:09:53;;;;;;;3.65;1.5;;;;;;;5.09;55.33496;94138.2;;;;
2024/01/05 03:10:54;;;;;;;3.65;1.5;;;;;;;5.09;55.33496;94138.2;;;;
2024/01/05 03:11:54;;;;;;;3.65;1.5;;;;;;;5.09;55.33496;94138.2;;;;
2024/01/05 03:12:55;;;;;;;2.5;1.4;;;;;;;5.03;55.25098;94119.76;;;;
2024/01/05 03:13:55;;;;;;;2.5;1.4;;;;;;;5.03;55.25098;94119.76;;;;
2024/01/05 03:14:56;;;;;;;2.5;1.4;;;;;;;5.03;55.25098;94119.76;;;;
2024/01/05 03:15:56;;;;;;;2.5;1.4;;;;;;;5.03;55.25098;94119.76;;;;
2024/01/05 03:16:57;;;;;;;2.5;1.4;;;;;;;5.03;55.25098;94119.76;;;;
2024/01/05 03:17:58;;;;;;;2.5;1.4;;;;;;;5.03;55.25098;94119.76;;;;
2024/01/05 03:18:59;;;;;;;2.5;1.4;;;;;;;5.03;55.25098;94119.76;;;;
2024/01/05 03:20:00;;;;;;;2.5;1.4;;;;;;;5.03;55.25098;94119.76;;;;
2024/01/05 03:21:00;;;;;;;2.5;1.4;;;;;;;5.03;55.25098;94119.76;;;;
2024/01/05 03:22:01;;;;;;;2.5;1.4;;;;;;;5.03;55.25098;94119.76;;;;
2024/01/05 03:23:02;;;;;;;2.5;1.4;;;;;;;5.03;55.25098;94119.76;;;;
2024/01/05 03:24:03;;;;;;;3.95;1.6;;;;;;;5.21;54.79492;94094.62;;;;
2024/01/05 03:25:04;;;;;;;3.95;1.6;;;;;;;5.21;54.79492;94094.62;;;;
2024/01/05 03:26:06;;;;;;;3.95;1.6;;;;;;;5.21;54.79492;94094.62;;;;
2024/01/05 03:27:12;;;;;;;3.95;1.6;;;;;;;5.21;54.79492;94094.62;;;;
2024/01/05 03:28:13;;;;;;;3.95;1.6;;;;;;;5.21;54.79492;94094.62;;;;
2024/01/05 03:29:14;;;;;;;3.95;1.6;;;;;;;5.21;54.79492;94094.62;;;;
2024/01/05 03:30:15;;;;;;;3.95;1.6;;;;;;;5.21;54.79492;94094.62;;;;
2024/01/05 03:31:15;;;;;;;3.95;1.6;;;;;;;5.21;54.79492;94094.62;;;;
2024/01/05 03:32:16;;;;;;;3.95;1.6;;;;;;;5.21;54.79492;94094.62;;;;
2024/01/05 03:33:16;;;;;;;3.95;1.6;;;;;;;5.21;54.79492;94094.62;;;;
2024/01/05 03:34:19;;;;;;;2.6;1.5;;;;;;;5.18;54.7041;94096.34;;;;
2024/01/05 03:35:19;;;;;;;2.6;1.5;;;;;;;5.18;54.7041;94096.34;;;;
2024/01/05 03:36:20;;;;;;;2.6;1.5;;;;;;;5.18;54.7041;94096.34;;;;
2024/01/05 03:37:20;;;;;;;2.6;1.5;;;;;;;5.18;54.7041;94096.34;;;;
2024/01/05 03:38:21;;;;;;;2.6;1.5;;;;;;;5.18;54.7041;94096.34;;;;
2024/01/05 03:39:21;;;;;;;2.6;1.5;;;;;;;5.18;54.7041;94096.34;;;;
2024/01/05 03:40:22;;;;;;;2.6;1.5;;;;;;;5.18;54.7041;94096.34;;;;
2024/01/05 03:41:22;;;;;;;2.6;1.5;;;;;;;5.18;54.7041;94096.34;;;;
2024/01/05 03:42:24;;;;;;;2.6;1.5;;;;;;;5.18;54.7041;94096.34;;;;
2024/01/05 03:43:24;;;;;;;2.6;1.5;;;;;;;5.18;54.7041;94096.34;;;;
2024/01/05 03:44:24;;;;;;;2.6;1.5;;;;;;;5.18;54.7041;94096.34;;;;
2024/01/05 03:45:25;;;;;;;3.15;1.7;;;;;;;5.18;54.79004;94082.84;;;;
2024/01/05 03:46:25;;;;;;;3.15;1.7;;;;;;;5.18;54.79004;94082.84;;;;
2024/01/05 03:47:26;;;;;;;3.15;1.7;;;;;;;5.18;54.79004;94082.84;;;;
2024/01/05 03:48:26;;;;;;;3.15;1.7;;;;;;;5.18;54.79004;94082.84;;;;
2024/01/05 03:49:27;;;;;;;3.15;1.7;;;;;;;5.18;54.79004;94082.84;;;;
2024/01/05 03:50:28;;;;;;;3.15;1.7;;;;;;;5.18;54.79004;94082.84;;;;
2024/01/05 03:51:28;;;;;;;3.15;1.7;;;;;;;5.18;54.79004;94082.84;;;;
2024/01/05 03:52:29;;;;;;;3.15;1.7;;;;;;;5.18;54.79004;94082.84;;;;
2024/01/05 03:53:30;;;;;;;3.15;1.7;;;;;;;5.18;54.79004;94082.84;;;;
2024/01/05 03:54:30;;;;;;;3.15;1.7;;;;;;;5.18;54.79004;94082.84;;;;
2024/01/05 03:55:30;;;;;;;3.15;1.7;;;;;;;5.18;54.79004;94082.84;;;;
2024/01/05 03:56:31;;;;;;;2.85;1.6;;;;;;;5.23;54.75391;94088.17;;;;
2024/01/05 03:57:37;;;;;;;2.85;1.6;;;;;;;5.23;54.75391;94088.17;;;;
2024/01/05 03:58:38;;;;;;;2.85;1.6;;;;;;;5.23;54.75391;94088.17;;;;
2024/01/05 03:59:38;;;;;;;2.85;1.6;;;;;;;5.23;54.75391;94088.17;;;;
2024/01/05 04:00:40;;;;;;;2.85;1.6;;;;;;;5.23;54.75391;94088.17;;;;
2024/01/05 04:01:41;;;;;;;2.85;1.6;;;;;;;5.23;54.75391;94088.17;;;;
2024/01/05 04:02:42;;;;;;;2.85;1.6;;;;;;;5.23;54.75391;94088.17;;;;
2024/01/05 04:03:43;;;;;;;2.85;1.6;;;;;;;5.23;54.75391;94088.17;;;;
2024/01/05 04:04:43;;;;;;;2.85;1.6;;;;;;;5.23;54.75391;94088.17;;;;
2024/01/05 04:05:44;;;;;;;2.85;1.6;;;;;;;5.23;54.75391;94088.17;;;;
2024/01/05 04:06:45;;;;;;;2.2;1.5;;;;;;;5.17;54.91699;94065.01;;;;
2024/01/05 04:07:45;;;;;;;2.2;1.5;;;;;;;5.17;54.91699;94065.01;;;;
2024/01/05 04:08:45;;;;;;;2.2;1.5;;;;;;;5.17;54.91699;94065.01;;;;
2024/01/05 04:09:46;;;;;;;2.2;1.5;;;;;;;5.17;54.91699;94065.01;;;;
2024/01/05 04:10:47;;;;;;;2.2;1.5;;;;;;;5.17;54.91699;94065.01;;;;
2024/01/05 04:11:47;;;;;;;2.2;1.5;;;;;;;5.17;54.91699;94065.01;;;;
2024/01/05 04:12:47;;;;;;;2.2;1.5;;;;;;;5.17;54.91699;94065.01;;;;
2024/01/05 04:13:48;;;;;;;2.2;1.5;;;;;;;5.17;54.91699;94065.01;;;;
2024/01/05 04:14:49;;;;;;;2.2;1.5;;;;;;;5.17;54.91699;94065.01;;;;
2024/01/05 04:15:49;;;;;;;2.2;1.5;;;;;;;5.17;54.91699;94065.01;;;;
2024/01/05 04:16:50;;;;;;;2.2;1.5;;;;;;;5.17;54.91699;94065.01;;;;
2024/01/05 04:17:51;;;;;;;2.35;1.65;;;;;;;5.2;54.81445;94024.02;;;;
2024/01/05 04:18:51;;;;;;;2.35;1.65;;;;;;;5.2;54.81445;94024.02;;;;
2024/01/05 04:19:52;;;;;;;2.35;1.65;;;;;;;5.2;54.81445;94024.02;;;;
2024/01/05 04:20:52;;;;;;;2.35;1.65;;;;;;;5.2;54.81445;94024.02;;;;
2024/01/05 04:21:53;;;;;;;2.35;1.65;;;;;;;5.2;54.81445;94024.02;;;;
2024/01/05 04:22:53;;;;;;;2.35;1.65;;;;;;;5.2;54.81445;94024.02;;;;
2024/01/05 04:23:54;;;;;;;2.35;1.65;;;;;;;5.2;54.81445;94024.02;;;;
2024/01/05 04:24:55;;;;;;;2.35;1.65;;;;;;;5.2;54.81445;94024.02;;;;
2024/01/05 04:25:55;;;;;;;2.35;1.65;;;;;;;5.2;54.81445;94024.02;;;;
2024/01/05 04:26:56;;;;;;;2.35;1.65;;;;;;;5.2;54.81445;94024.02;;;;
2024/01/05 04:27:56;;;;;;;2.35;1.65;;;;;;;5.2;54.81445;94024.02;;;;
2024/01/05 04:28:57;;;;;;;2.95;1.9;;;;;;;5.07;55.10645;94036.38;;;;
2024/01/05 04:29:58;;;;;;;2.95;1.9;;;;;;;5.07;55.10645;94036.38;;;;
2024/01/05 04:30:58;;;;;;;2.95;1.9;;;;;;;5.07;55.10645;94036.38;;;;
2024/01/05 04:31:59;;;;;;;2.95;1.9;;;;;;;5.07;55.10645;94036.38;;;;
2024/01/05 04:33:00;;;;;;;2.95;1.9;;;;;;;5.07;55.10645;94036.38;;;;
2024/01/05 04:34:01;;;;;;;2.95;1.9;;;;;;;5.07;55.10645;94036.38;;;;
2024/01/05 04:35:03;;;;;;;2.95;1.9;;;;;;;5.07;55.10645;94036.38;;;;
2024/01/05 04:36:05;;;;;;;2.95;1.9;;;;;;;5.07;55.10645;94036.38;;;;
2024/01/05 04:37:06;;;;;;;2.95;1.9;;;;;;;5.07;55.10645;94036.38;;;;
2024/01/05 04:38:06;;;;;;;2.95;1.9;;;;;;;5.07;55.10645;94036.38;;;;
2024/01/05 04:39:09;;;;;;;2.95;1.9;;;;;;;5.07;55.10645;94036.38;;;;
2024/01/05 04:40:10;;;;;;;2.95;1.9;;;;;;;5.07;55.10645;94036.38;;;;
2024/01/05 04:41:11;;;;;;;2.95;1.9;;;;;;;5.07;55.10645;94036.38;;;;
2024/01/05 04:42:14;;;;;;;2.95;1.9;;;;;;;5.07;55.10645;94036.38;;;;
2024/01/05 04:43:15;;;;;;;2.95;1.9;;;;;;;5.07;55.10645;94036.38;;;;
2024/01/05 04:44:15;;;;;;;2.95;1.9;;;;;;;5.07;55.10645;94036.38;;;;
2024/01/05 04:45:16;;;;;;;2.95;1.9;;;;;;;5.07;55.10645;94036.38;;;;
2024/01/05 04:46:17;;;;;;;2.95;1.9;;;;;;;5.07;55.10645;94036.38;;;;
2024/01/05 04:47:18;;;;;;;2.95;1.9;;;;;;;5.07;55.10645;94036.38;;;;
2024/01/05 04:48:18;;;;;;;2.95;1.9;;;;;;;5.07;55.10645;94036.38;;;;
2024/01/05 04:49:19;;;;;;;2.95;1.9;;;;;;;5.07;55.10645;94036.38;;;;
2024/01/05 04:50:20;;;;;;;3.75;1.75;;;;;;;4.96;55.34961;94041.36;;;;
2024/01/05 04:51:20;;;;;;;3.75;1.75;;;;;;;4.96;55.34961;94041.36;;;;
2024/01/05 04:52:21;;;;;;;3.75;1.75;;;;;;;4.96;55.34961;94041.36;;;;
2024/01/05 04:53:21;;;;;;;3.75;1.75;;;;;;;4.96;55.34961;94041.36;;;;
2024/01/05 04:54:22;;;;;;;3.75;1.75;;;;;;;4.96;55.34961;94041.36;;;;
2024/01/05 04:55:22;;;;;;;3.75;1.75;;;;;;;4.96;55.34961;94041.36;;;;
2024/01/05 04:56:23;;;;;;;3.75;1.75;;;;;;;4.96;55.34961;94041.36;;;;
2024/01/05 04:57:23;;;;;;;3.75;1.75;;;;;;;4.96;55.34961;94041.36;;;;
2024/01/05 04:58:24;;;;;;;3.75;1.75;;;;;;;4.96;55.34961;94041.36;;;;
2024/01/05 04:59:24;;;;;;;3.75;1.75;;;;;;;4.96;55.34961;94041.36;;;;
2024/01/05 05:00:25;;;;;;;3.15;1.95;;;;;;;5.1;55.1543;94043.72;;;;
2024/01/05 05:01:25;;;;;;;3.15;1.95;;;;;;;5.1;55.1543;94043.72;;;;
2024/01/05 05:02:26;;;;;;;3.15;1.95;;;;;;;5.1;55.1543;94043.72;;;;
2024/01/05 05:03:26;;;;;;;3.15;1.95;;;;;;;5.1;55.1543;94043.72;;;;
2024/01/05 05:04:27;;;;;;;3.15;1.95;;;;;;;5.1;55.1543;94043.72;;;;
2024/01/05 05:05:27;;;;;;;3.15;1.95;;;;;;;5.1;55.1543;94043.72;;;;
2024/01/05 05:06:28;;;;;;;3.15;1.95;;;;;;;5.1;55.1543;94043.72;;;;
2024/01/05 05:07:28;;;;;;;3.15;1.95;;;;;;;5.1;55.1543;94043.72;;;;
2024/01/05 05:08:28;;;;;;;3.15;1.95;;;;;;;5.1;55.1543;94043.72;;;;
2024/01/05 05:09:29;;;;;;;3.15;1.95;;;;;;;5.1;55.1543;94043.72;;;;
2024/01/05 05:10:29;;;;;;;3.15;1.95;;;;;;;5.1;55.1543;94043.72;;;;
2024/01/05 05:11:30;;;;;;;5.1;2.2;;;;;;;5.33;54.87305;94039.67;;;;
2024/01/05 05:12:31;;;;;;;5.1;2.2;;;;;;;5.33;54.87305;94039.67;;;;
2024/01/05 05:13:31;;;;;;;5.1;2.2;;;;;;;5.33;54.87305;94039.67;;;;
2024/01/05 05:14:33;;;;;;;5.1;2.2;;;;;;;5.33;54.87305;94039.67;;;;
2024/01/05 05:15:33;;;;;;;5.1;2.2;;;;;;;5.33;54.87305;94039.67;;;;
2024/01/05 05:16:35;;;;;;;5.1;2.2;;;;;;;5.33;54.87305;94039.67;;;;
2024/01/05 05:17:35;;;;;;;5.1;2.2;;;;;;;5.33;54.87305;94039.67;;;;
2024/01/05 05:18:36;;;;;;;5.1;2.2;;;;;;;5.33;54.87305;94039.67;;;;
2024/01/05 05:19:36;;;;;;;5.1;2.2;;;;;;;5.33;54.87305;94039.67;;;;
2024/01/05 05:20:37;;;;;;;5.1;2.2;;;;;;;5.33;54.87305;94039.67;;;;
2024/01/05 05:21:37;;;;;;;2.6;1.8;;;;;;;5.4;54.86133;94043.94;;;;
2024/01/05 05:22:38;;;;;;;2.6;1.8;;;;;;;5.4;54.86133;94043.94;;;;
2024/01/05 05:23:39;;;;;;;2.6;1.8;;;;;;;5.4;54.86133;94043.94;;;;
2024/01/05 05:24:39;;;;;;;2.6;1.8;;;;;;;5.4;54.86133;94043.94;;;;
2024/01/05 05:25:40;;;;;;;2.6;1.8;;;;;;;5.4;54.86133;94043.94;;;;
2024/01/05 05:26:41;;;;;;;2.6;1.8;;;;;;;5.4;54.86133;94043.94;;;;
2024/01/05 05:27:41;;;;;;;2.6;1.8;;;;;;;5.4;54.86133;94043.94;;;;
2024/01/05 05:28:43;;;;;;;2.6;1.8;;;;;;;5.4;54.86133;94043.94;;;;
2024/01/05 05:29:43;;;;;;;2.6;1.8;;;;;;;5.4;54.86133;94043.94;;;;
2024/01/05 05:30:43;;;;;;;2.6;1.8;;;;;;;5.4;54.86133;94043.94;;;;
2024/01/05 05:31:44;;;;;;;2.6;1.8;;;;;;;5.4;54.86133;94043.94;;;;
2024/01/05 05:32:45;;;;;;;3.4;1.95;;;;;;;5.44;54.87695;94055.21;;;;
2024/01/05 05:33:45;;;;;;;3.4;1.95;;;;;;;5.44;54.87695;94055.21;;;;
2024/01/05 05:34:46;;;;;;;3.4;1.95;;;;;;;5.44;54.87695;94055.21;;;;
2024/01/05 05:35:46;;;;;;;3.4;1.95;;;;;;;5.44;54.87695;94055.21;;;;
2024/01/05 05:36:47;;;;;;;3.4;1.95;;;;;;;5.44;54.87695;94055.21;;;;
2024/01/05 05:37:47;;;;;;;3.4;1.95;;;;;;;5.44;54.87695;94055.21;;;;
2024/01/05 05:38:48;;;;;;;3.4;1.95;;;;;;;5.44;54.87695;94055.21;;;;
2024/01/05 05:39:48;;;;;;;3.4;1.95;;;;;;;5.44;54.87695;94055.21;;;;
2024/01/05 05:40:49;;;;;;;3.4;1.95;;;;;;;5.44;54.87695;94055.21;;;;
2024/01/05 05:41:49;;;;;;;3.4;1.95;;;;;;;5.44;54.87695;94055.21;;;;
2024/01/05 05:42:50;;;;;;;3.4;1.95;;;;;;;5.44;54.87695;94055.21;;;;
2024/01/05 05:43:50;;;;;;;2.7;1.9;;;;;;;5.37;55.15723;94031.67;;;;
2024/01/05 05:44:51;;;;;;;2.7;1.9;;;;;;;5.37;55.15723;94031.67;;;;
2024/01/05 05:45:51;;;;;;;2.7;1.9;;;;;;;5.37;55.15723;94031.67;;;;
2024/01/05 05:46:51;;;;;;;2.7;1.9;;;;;;;5.37;55.15723;94031.67;;;;
2024/01/05 05:47:52;;;;;;;2.7;1.9;;;;;;;5.37;55.15723;94031.67;;;;
2024/01/05 05:48:52;;;;;;;2.7;1.9;;;;;;;5.37;55.15723;94031.67;;;;
2024/01/05 05:49:53;;;;;;;2.7;1.9;;;;;;;5.37;55.15723;94031.67;;;;
2024/01/05 05:50:53;;;;;;;2.7;1.9;;;;;;;5.37;55.15723;94031.67;;;;
2024/01/05 05:51:54;;;;;;;2.7;1.9;;;;;;;5.37;55.15723;94031.67;;;;
2024/01/05 05:52:55;;;;;;;2.7;1.9;;;;;;;5.37;55.15723;94031.67;;;;
2024/01/05 05:53:55;;;;;;;4.1;1.95;;;;;;;5.41;55.23535;94039.92;;;;
2024/01/05 05:54:56;;;;;;;4.1;1.95;;;;;;;5.41;55.23535;94039.92;;;;
2024/01/05 05:55:56;;;;;;;4.1;1.95;;;;;;;5.41;55.23535;94039.92;;;;